createdAt,value
2019-04-29T00:01:30.762Z,99916.46
2019-04-29T00:03:33.855Z,99914.47
2019-04-29T00:05:36.942Z,99913.33
2019-04-29T00:07:40.004Z,99920.92
2019-04-29T00:09:43.236Z,99923.30
2019-04-29T00:11:46.371Z,99918.93
2019-04-29T00:13:49.472Z,99922.66
2019-04-29T00:15:52.541Z,99920.98
2019-04-29T00:17:55.616Z,99927.73
2019-04-29T00:19:59.825Z,99931.77
2019-04-29T00:22:02.901Z,99924.70
2019-04-29T00:24:06.001Z,99926.59
2019-04-29T00:26:09.077Z,99929.28
2019-04-29T00:28:12.237Z,99926.27
2019-04-29T00:30:15.337Z,99930.80
2019-04-29T00:32:18.400Z,99932.68
2019-04-29T00:34:21.642Z,99928.31
2019-04-29T00:36:24.712Z,99926.64
2019-04-29T00:38:27.917Z,99929.34
2019-04-29T00:40:31.041Z,99926.32
2019-04-29T00:42:34.102Z,99931.71
2019-04-29T00:44:37.262Z,99931.71
2019-04-29T00:46:40.331Z,99934.94
2019-04-29T00:48:43.427Z,99932.73
2019-04-29T00:50:46.675Z,99933.27
2019-04-29T00:52:49.897Z,99933.77
2019-04-29T00:54:53.071Z,99931.06
2019-04-29T00:56:56.172Z,99930.25
2019-04-29T00:58:59.258Z,99929.92
2019-04-29T01:01:02.492Z,99932.83
2019-04-29T01:03:05.564Z,99934.67
2019-04-29T01:05:08.786Z,99939.57
2019-04-29T01:07:11.927Z,99936.55
2019-04-29T01:09:15.008Z,99933.53
2019-04-29T01:11:18.213Z,99937.05
2019-04-29T01:13:21.482Z,99937.58
2019-04-29T01:15:24.713Z,99935.38
2019-04-29T01:17:27.910Z,99936.44
2019-04-29T01:19:30.985Z,99940.97
2019-04-29T01:21:34.099Z,99942.32
2019-04-29T01:23:37.163Z,99943.67
2019-04-29T01:25:40.261Z,99942.84
2019-04-29T01:27:43.328Z,99942.52
2019-04-29T01:29:46.521Z,99941.18
2019-04-29T01:31:49.730Z,99946.57
2019-04-29T01:33:52.791Z,99947.06
2019-04-29T01:35:55.919Z,99945.11
2019-04-29T01:37:59.040Z,99943.93
2019-04-29T01:40:02.133Z,99945.60
2019-04-29T01:42:05.220Z,99947.48
2019-04-29T01:44:08.288Z,99944.78
2019-04-29T01:46:11.396Z,99948.50
2019-04-29T01:48:14.466Z,99948.50
2019-04-29T01:50:17.620Z,99941.11
2019-04-29T01:52:20.834Z,99950.02
2019-04-29T01:54:23.903Z,99949.73
2019-04-29T01:56:26.991Z,99948.88
2019-04-29T01:58:30.054Z,99952.59
2019-04-29T02:00:33.130Z,99948.55
2019-04-29T02:02:36.223Z,99950.43
2019-04-29T02:04:39.283Z,99957.17
2019-04-29T02:06:42.382Z,99957.67
2019-04-29T02:08:45.459Z,99959.55
2019-04-29T02:10:48.654Z,99958.20
2019-04-29T02:12:51.870Z,99956.84
2019-04-29T02:14:55.078Z,99953.83
2019-04-29T02:16:58.405Z,99958.36
2019-04-29T02:19:01.657Z,99953.50
2019-04-29T02:21:04.714Z,99952.16
2019-04-29T02:23:07.799Z,99958.89
2019-04-29T02:25:10.879Z,99957.02
2019-04-29T02:27:13.989Z,99956.90
2019-04-29T02:29:17.061Z,99957.22
2019-04-29T02:31:20.132Z,99966.66
2019-04-29T02:33:23.232Z,99965.84
2019-04-29T02:35:26.298Z,99966.01
2019-04-29T02:37:29.674Z,99959.80
2019-04-29T02:39:32.766Z,99968.91
2019-04-29T02:41:35.851Z,99962.17
2019-04-29T02:43:38.951Z,99963.20
2019-04-29T02:45:42.028Z,99964.05
2019-04-29T02:47:45.116Z,99963.20
2019-04-29T02:49:48.217Z,99970.45
2019-04-29T02:51:51.432Z,99966.41
2019-04-29T02:53:54.641Z,99964.22
2019-04-29T02:55:57.705Z,99959.84
2019-04-29T02:58:00.816Z,99960.70
2019-04-29T03:00:04.034Z,99957.16
2019-04-29T03:02:07.288Z,99956.34
2019-04-29T03:04:10.353Z,99954.98
2019-04-29T03:06:13.428Z,99958.18
2019-04-29T03:08:16.623Z,99959.03
2019-04-29T03:10:19.725Z,99954.66
2019-04-29T03:12:22.920Z,99950.63
2019-04-29T03:14:26.025Z,99954.87
2019-04-29T03:16:29.107Z,99950.50
2019-04-29T03:18:32.261Z,99952.99
2019-04-29T03:20:35.334Z,99954.55
2019-04-29T03:22:38.470Z,99956.71
2019-04-29T03:24:41.541Z,99959.08
2019-04-29T03:26:44.621Z,99967.16
2019-04-29T03:28:47.720Z,99970.39
2019-04-29T03:30:50.947Z,99966.34
2019-04-29T03:32:54.019Z,99966.84
2019-04-29T03:34:57.243Z,99965.49
2019-04-29T03:37:00.469Z,99976.80
2019-04-29T03:39:03.604Z,99967.90
2019-04-29T03:41:06.669Z,99968.92
2019-04-29T03:43:09.734Z,99977.83
2019-04-29T03:45:12.949Z,99971.29
2019-04-29T03:47:18.765Z,99972.96
2019-04-29T03:49:20.247Z,99965.38
2019-04-29T03:51:23.326Z,99976.35
2019-04-29T03:53:28.340Z,99984.44
2019-04-29T03:55:40.122Z,99974.16
2019-04-29T03:57:35.073Z,99979.05
2019-04-29T03:59:38.349Z,99980.39
2019-04-29T04:01:41.414Z,99973.66
2019-04-29T04:03:44.485Z,99974.36
2019-04-29T04:05:47.599Z,99968.97
2019-04-29T04:07:50.668Z,99978.20
2019-04-29T04:09:53.816Z,99979.75
2019-04-29T04:11:56.922Z,99974.36
2019-04-29T04:13:59.991Z,99985.66
2019-04-29T04:16:03.082Z,99982.12
2019-04-29T04:18:06.152Z,99983.79
2019-04-29T04:20:09.277Z,99979.42
2019-04-29T04:22:12.465Z,99983.66
2019-04-29T04:24:15.527Z,99979.09
2019-04-29T04:26:18.623Z,99985.84
2019-04-29T04:28:21.696Z,99990.90
2019-04-29T04:30:24.898Z,99991.42
2019-04-29T04:32:27.979Z,99997.64
2019-04-29T04:34:31.037Z,99997.64
2019-04-29T04:36:34.120Z,100001.67
2019-04-29T04:38:37.208Z,100003.55
2019-04-29T04:40:40.290Z,99999.71
2019-04-29T04:42:43.360Z,100010.28
2019-04-29T04:44:46.436Z,100009.14
2019-04-29T04:46:49.549Z,100008.94
2019-04-29T04:48:52.611Z,100006.45
2019-04-29T04:50:55.769Z,100010.16
2019-04-29T04:52:58.842Z,100006.13
2019-04-29T04:55:01.918Z,100008.81
2019-04-29T04:57:05.127Z,100014.70
2019-04-29T04:59:08.193Z,100009.84
2019-04-29T05:01:11.311Z,100013.43
2019-04-29T05:03:14.399Z,100017.27
2019-04-29T05:05:17.541Z,100017.10
2019-04-29T05:07:20.636Z,100018.53
2019-04-29T05:09:23.936Z,100024.41
2019-04-29T05:11:27.179Z,100028.28
2019-04-29T05:13:30.284Z,100028.03
2019-04-29T05:15:33.504Z,100028.40
2019-04-29T05:17:36.587Z,100024.72
2019-04-29T05:19:39.668Z,100030.51
2019-04-29T05:21:42.732Z,100033.04
2019-04-29T05:23:45.839Z,100038.82
2019-04-29T05:25:48.895Z,100041.12
2019-04-29T05:27:52.002Z,100043.31
2019-04-29T05:29:55.086Z,100043.12
2019-04-29T05:31:58.165Z,100039.41
2019-04-29T05:34:01.257Z,100046.96
2019-04-29T05:36:04.484Z,100043.09
2019-04-29T05:38:07.660Z,100035.74
2019-04-29T05:40:10.730Z,100043.48
2019-04-29T05:42:17.154Z,100043.48
2019-04-29T05:44:19.139Z,100043.00
2019-04-29T05:46:23.275Z,100044.84
2019-04-29T05:48:27.582Z,100049.86
2019-04-29T05:50:30.762Z,100058.92
2019-04-29T05:52:34.778Z,100060.59
2019-04-29T05:54:38.603Z,100058.23
2019-04-29T05:56:41.685Z,100064.23
2019-04-29T05:58:44.781Z,100060.20
2019-04-29T06:00:47.871Z,100068.61
2019-04-29T06:02:51.072Z,100069.46
2019-04-29T06:04:54.612Z,100068.93
2019-04-29T06:06:57.801Z,100075.63
2019-04-29T06:09:01.011Z,100079.77
2019-04-29T06:11:04.267Z,100080.39
2019-04-29T06:13:07.454Z,100078.48
2019-04-29T06:15:10.558Z,100078.31
2019-04-29T06:17:13.920Z,100083.17
2019-04-29T06:19:17.217Z,100081.13
2019-04-29T06:21:20.341Z,100078.93
2019-04-29T06:23:24.325Z,100086.36
2019-04-29T06:25:27.503Z,100088.89
2019-04-29T06:27:33.281Z,100088.39
2019-04-29T06:29:34.747Z,100089.91
2019-04-29T06:31:38.258Z,100083.17
2019-04-29T06:33:41.366Z,100086.81
2019-04-29T06:35:47.350Z,100084.77
2019-04-29T06:37:49.100Z,100087.11
2019-04-29T06:39:52.324Z,100088.09
2019-04-29T06:41:57.332Z,100093.59
2019-04-29T06:44:05.208Z,100096.42
2019-04-29T06:46:06.197Z,100102.47
2019-04-29T06:48:09.553Z,100100.09
2019-04-29T06:50:12.911Z,100099.90
2019-04-29T06:52:16.170Z,100100.23
2019-04-29T06:54:20.205Z,100110.80
2019-04-29T06:56:23.473Z,100105.25
2019-04-29T06:58:26.630Z,100106.39
2019-04-29T07:00:30.421Z,100105.17
2019-04-29T07:02:33.654Z,100100.64
2019-04-29T07:04:39.604Z,100107.50
2019-04-29T07:06:56.748Z,100103.46
2019-04-29T07:08:50.283Z,100111.67
2019-04-29T07:11:31.887Z,100111.23
2019-04-29T07:13:32.787Z,100111.80
2019-04-29T07:15:36.466Z,100113.80
2019-04-29T07:17:41.327Z,100114.98
2019-04-29T07:19:44.345Z,100115.27
2019-04-29T07:21:51.494Z,100123.89
2019-04-29T07:23:52.636Z,100113.11
2019-04-29T07:25:55.739Z,100114.13
2019-04-29T07:27:59.552Z,100114.33
2019-04-29T07:30:10.196Z,100121.06
2019-04-29T07:32:14.826Z,100115.84
2019-04-29T07:34:18.285Z,100117.02
2019-04-29T07:36:22.868Z,100109.59
2019-04-29T07:38:40.290Z,100120.66
2019-04-29T07:40:31.078Z,100114.25
2019-04-29T07:42:34.464Z,100117.93
2019-04-29T07:44:44.157Z,100123.32
2019-04-29T07:46:56.283Z,100116.58
2019-04-29T07:49:00.789Z,100112.02
2019-04-29T07:50:54.716Z,100115.56
2019-04-29T07:52:58.481Z,100115.77
2019-04-29T07:55:01.689Z,100115.23
2019-04-29T07:57:04.856Z,100123.12
2019-04-29T07:59:11.127Z,100122.63
2019-04-29T08:01:13.477Z,100116.91
2019-04-29T08:03:16.863Z,100116.70
2019-04-29T08:05:20.961Z,100118.21
2019-04-29T08:07:25.057Z,100123.40
2019-04-29T08:09:28.293Z,100121.53
2019-04-29T08:11:32.078Z,100123.20
2019-04-29T08:13:35.855Z,100119.69
2019-04-29T08:15:41.729Z,100112.75
2019-04-29T08:17:43.742Z,100114.05
2019-04-29T08:19:47.032Z,100110.33
2019-04-29T08:21:51.320Z,100116.42
2019-04-29T08:23:54.897Z,100109.48
2019-04-29T08:26:02.576Z,100111.15
2019-04-29T08:28:03.936Z,100110.00
2019-04-29T08:30:11.359Z,100111.48
2019-04-29T08:32:11.693Z,100111.97
2019-04-29T08:34:18.613Z,100106.08
2019-04-29T08:36:20.317Z,100108.25
2019-04-29T08:38:23.512Z,100117.31
2019-04-29T08:40:27.513Z,100122.71
2019-04-29T08:42:31.189Z,100127.73
2019-04-29T08:44:34.799Z,100124.34
2019-04-29T08:46:37.995Z,100127.28
2019-04-29T08:48:41.167Z,100112.13
2019-04-29T08:50:44.707Z,100117.97
2019-04-29T08:52:48.011Z,100114.57
2019-04-29T08:54:55.468Z,100111.34
2019-04-29T08:57:03.147Z,100110.32
2019-04-29T08:59:00.665Z,100110.32
2019-04-29T09:01:04.653Z,100114.69
2019-04-29T09:03:08.094Z,100114.69
2019-04-29T09:05:13.148Z,100109.62
2019-04-29T09:07:17.584Z,100105.09
2019-04-29T09:09:28.997Z,100100.19
2019-04-29T09:11:26.945Z,100099.16
2019-04-29T09:13:30.051Z,100097.48
2019-04-29T09:15:33.503Z,100098.84
2019-04-29T09:17:36.833Z,100087.72
2019-04-29T09:19:40.198Z,100090.42
2019-04-29T09:21:43.549Z,100092.09
2019-04-29T09:23:47.305Z,100090.42
2019-04-29T09:26:02.003Z,100090.42
2019-04-29T09:27:56.447Z,100086.38
2019-04-29T09:30:00.567Z,100086.70
2019-04-29T09:32:03.788Z,100078.28
2019-04-29T09:34:07.153Z,100076.77
2019-04-29T09:36:13.971Z,100084.65
2019-04-29T09:38:15.959Z,100084.65
2019-04-29T09:40:19.739Z,100077.91
2019-04-29T09:42:23.138Z,100081.10
2019-04-29T09:44:26.564Z,100073.33
2019-04-29T09:46:34.359Z,100069.28
2019-04-29T09:48:34.599Z,100067.48
2019-04-29T09:50:39.007Z,100064.25
2019-04-29T09:52:42.831Z,100068.13
2019-04-29T09:54:46.448Z,100065.75
2019-04-29T09:56:49.907Z,100068.74
2019-04-29T09:58:53.163Z,100057.83
2019-04-29T10:00:58.358Z,100066.77
2019-04-29T10:03:02.871Z,100057.83
2019-04-29T10:05:06.425Z,100054.44
2019-04-29T10:07:09.743Z,100053.08
2019-04-29T10:09:13.055Z,100046.87
2019-04-29T10:11:16.676Z,100049.36
2019-04-29T10:13:20.117Z,100055.78
2019-04-29T10:15:24.068Z,100051.53
2019-04-29T10:17:28.490Z,100048.84
2019-04-29T10:19:31.614Z,100042.30
2019-04-29T10:21:38.019Z,100040.42
2019-04-29T10:23:41.342Z,100039.59
2019-04-29T10:25:44.691Z,100038.90
2019-04-29T10:27:47.897Z,100038.25
2019-04-29T10:29:55.372Z,100036.38
2019-04-29T10:31:55.831Z,100025.29
2019-04-29T10:33:59.448Z,100035.02
2019-04-29T10:36:02.942Z,100034.41
2019-04-29T10:38:06.045Z,100028.92
2019-04-29T10:40:11.280Z,100025.91
2019-04-29T10:42:13.738Z,100027.14
2019-04-29T10:44:16.935Z,100023.62
2019-04-29T10:46:20.221Z,100014.18
2019-04-29T10:48:23.678Z,100018.22
2019-04-29T10:50:27.451Z,100022.88
2019-04-29T10:52:34.431Z,100011.48
2019-04-29T10:54:35.889Z,100018.02
2019-04-29T10:56:41.041Z,100009.92
2019-04-29T10:58:43.966Z,100013.65
2019-04-29T11:00:47.222Z,100006.09
2019-04-29T11:02:51.131Z,100006.59
2019-04-29T11:04:54.850Z,100014.18
2019-04-29T11:06:57.982Z,100015.00
2019-04-29T11:09:01.459Z,100009.28
2019-04-29T11:11:05.690Z,100010.63
2019-04-29T11:13:09.176Z,100015.70
2019-04-29T11:15:13.924Z,100010.45
2019-04-29T11:17:17.434Z,100010.45
2019-04-29T11:19:20.666Z,100006.91
2019-04-29T11:21:25.087Z,100007.44
2019-04-29T11:23:29.257Z,100011.27
2019-04-29T11:25:33.281Z,100004.86
2019-04-29T11:27:36.530Z,99998.93
2019-04-29T11:29:40.040Z,100010.05
2019-04-29T11:31:43.152Z,100002.16
2019-04-29T11:33:46.365Z,99998.81
2019-04-29T11:35:49.506Z,100001.52
2019-04-29T11:37:55.373Z,100000.16
2019-04-29T11:39:58.245Z,99996.11
2019-04-29T11:42:01.684Z,99994.77
2019-04-29T11:44:04.936Z,99994.77
2019-04-29T11:46:09.920Z,99989.05
2019-04-29T11:48:13.045Z,99982.84
2019-04-29T11:50:16.370Z,99982.84
2019-04-29T11:52:23.626Z,99982.25
2019-04-29T11:54:24.732Z,99987.12
2019-04-29T11:56:28.092Z,99987.12
2019-04-29T11:58:31.358Z,99980.05
2019-04-29T12:00:35.012Z,99977.67
2019-04-29T12:02:45.403Z,99980.38
2019-04-29T12:04:42.735Z,99975.85
2019-04-29T12:06:46.417Z,99972.13
2019-04-29T12:08:53.196Z,99973.47
2019-04-29T12:11:06.711Z,99967.76
2019-04-29T12:13:00.490Z,99969.69
2019-04-29T12:15:03.724Z,99965.97
2019-04-29T12:17:06.989Z,99960.69
2019-04-29T12:19:10.344Z,99955.93
2019-04-29T12:21:13.579Z,99963.61
2019-04-29T12:23:19.335Z,99961.23
2019-04-29T12:25:28.984Z,99959.06
2019-04-29T12:27:34.195Z,99959.88
2019-04-29T12:29:37.546Z,99965.92
2019-04-29T12:31:40.781Z,99957.01
2019-04-29T12:33:44.226Z,99955.56
2019-04-29T12:35:52.102Z,99947.14
2019-04-29T12:37:52.101Z,99944.12
2019-04-29T12:39:55.441Z,99943.30
2019-04-29T12:42:00.650Z,99945.68
2019-04-29T12:44:03.434Z,99942.66
2019-04-29T12:46:10.142Z,99939.15
2019-04-29T12:48:23.962Z,99935.42
2019-04-29T12:50:17.421Z,99930.56
2019-04-29T12:52:21.678Z,99933.97
2019-04-29T12:54:24.924Z,99930.95
2019-04-29T12:56:28.012Z,99926.30
2019-04-29T12:58:31.245Z,99923.45
2019-04-29T13:00:46.783Z,99914.86
2019-04-29T13:02:39.315Z,99914.86
2019-04-29T13:04:45.235Z,99918.48
2019-04-29T13:06:47.425Z,99919.02
2019-04-29T13:08:50.666Z,99925.16
2019-04-29T13:10:54.248Z,99917.33
2019-04-29T13:12:58.237Z,99909.66
2019-04-29T13:15:03.243Z,99907.70
2019-04-29T13:17:14.474Z,99911.55
2019-04-29T13:19:14.482Z,99904.80
2019-04-29T13:21:15.329Z,99904.80
2019-04-29T13:23:33.609Z,99897.02
2019-04-29T13:25:26.721Z,99904.72
2019-04-29T13:27:28.595Z,99891.30
2019-04-29T13:29:36.102Z,99892.26
2019-04-29T13:31:38.791Z,99893.08
2019-04-29T13:33:46.037Z,99893.71
2019-04-29T13:35:49.707Z,99885.37
2019-04-29T13:37:53.295Z,99885.37
2019-04-29T13:39:56.840Z,99890.16
2019-04-29T13:42:03.037Z,99892.37
2019-04-29T13:44:07.347Z,99886.25
2019-04-29T13:46:09.380Z,99881.67
2019-04-29T13:48:12.696Z,99882.52
2019-04-29T13:50:23.613Z,99881.17
2019-04-29T13:52:20.670Z,99878.58
2019-04-29T13:54:23.891Z,99882.31
2019-04-29T13:56:39.433Z,99881.46
2019-04-29T13:58:32.134Z,99882.20
2019-04-29T14:00:36.647Z,99882.20
2019-04-29T14:02:39.935Z,99875.95
2019-04-29T14:04:43.176Z,99877.30
2019-04-29T14:06:56.528Z,99877.13
2019-04-29T14:08:54.055Z,99878.66
2019-04-29T14:10:55.750Z,99878.97
2019-04-29T14:13:09.897Z,99874.71
2019-04-29T14:15:03.213Z,99877.41
2019-04-29T14:17:17.421Z,99868.70
2019-04-29T14:19:11.396Z,99870.87
2019-04-29T14:21:14.671Z,99868.39
2019-04-29T14:23:18.673Z,99876.80
2019-04-29T14:25:22.180Z,99872.22
2019-04-29T14:27:25.669Z,99866.19
2019-04-29T14:29:30.289Z,99871.09
2019-04-29T14:31:33.830Z,99864.52
2019-04-29T14:33:37.198Z,99875.70
2019-04-29T14:35:43.900Z,99866.12
2019-04-29T14:37:54.883Z,99867.14
2019-04-29T14:39:49.872Z,99863.52
2019-04-29T14:41:55.436Z,99852.73
2019-04-29T14:43:58.105Z,99851.41
2019-04-29T14:46:01.597Z,99854.97
2019-04-29T14:48:04.649Z,99860.79
2019-04-29T14:50:10.722Z,99850.13
2019-04-29T14:52:13.123Z,99852.83
2019-04-29T14:54:17.022Z,99845.76
2019-04-29T14:56:20.253Z,99852.19
2019-04-29T14:58:23.469Z,99847.82
2019-04-29T15:00:26.970Z,99856.31
2019-04-29T15:02:30.519Z,99857.88
2019-04-29T15:04:33.621Z,99859.94
2019-04-29T15:06:36.955Z,99856.92
2019-04-29T15:08:40.115Z,99855.07
2019-04-29T15:10:43.360Z,99848.00
2019-04-29T15:14:22.968Z,99848.43
2019-04-29T15:16:21.684Z,99852.55
2019-04-29T15:18:45.425Z,99855.14
2019-04-29T15:20:30.285Z,99854.11
2019-04-29T15:22:34.049Z,99843.84
2019-04-29T15:24:37.274Z,99845.70
2019-04-29T15:26:40.746Z,99849.25
2019-04-29T15:28:43.964Z,99852.45
2019-04-29T15:30:47.360Z,99846.23
2019-04-29T15:32:53.002Z,99850.28
2019-04-29T15:34:55.268Z,99851.63
2019-04-29T15:36:58.540Z,99852.45
2019-04-29T15:39:09.767Z,99840.83
2019-04-29T15:41:06.147Z,99847.58
2019-04-29T15:43:09.903Z,99840.52
2019-04-29T15:45:13.159Z,99849.42
2019-04-29T15:47:16.309Z,99847.86
2019-04-29T15:49:20.198Z,99855.53
2019-04-29T15:51:24.016Z,99854.36
2019-04-29T15:53:27.263Z,99857.48
2019-04-29T15:55:30.492Z,99853.61
2019-04-29T15:57:33.578Z,99851.63
2019-04-29T15:59:48.476Z,99849.85
2019-04-29T16:01:42.171Z,99846.23
2019-04-29T16:03:49.844Z,99843.39
2019-04-29T16:06:11.137Z,99848.99
2019-04-29T16:07:55.650Z,99853.75
2019-04-29T16:09:59.698Z,99854.98
2019-04-29T16:12:05.097Z,99851.97
2019-04-29T16:14:09.859Z,99853.20
2019-04-29T16:16:11.983Z,99853.20
2019-04-29T16:18:15.175Z,99844.27
2019-04-29T16:20:18.825Z,99851.33
2019-04-29T16:22:22.278Z,99846.67
2019-04-29T16:26:53.220Z,99850.08
2019-04-29T16:28:52.363Z,99853.80
2019-04-29T16:30:55.569Z,99849.44
2019-04-29T16:32:58.680Z,99855.05
2019-04-29T16:35:01.772Z,99849.33
2019-04-29T16:37:04.901Z,99854.72
2019-04-29T16:39:08.329Z,99853.16
2019-04-29T16:41:19.110Z,99849.12
2019-04-29T16:43:16.330Z,99852.66
2019-04-29T16:45:19.497Z,99849.44
2019-04-29T16:47:22.682Z,99850.78
2019-04-29T16:49:25.784Z,99855.86
2019-04-29T16:51:28.872Z,99851.50
2019-04-29T16:53:32.105Z,99854.05
2019-04-29T16:55:35.792Z,99857.09
2019-04-29T16:57:39.764Z,99853.41
2019-04-29T16:59:43.888Z,99854.75
2019-04-29T17:01:47.078Z,99854.44
2019-04-29T17:03:50.308Z,99852.27
2019-04-29T17:05:53.929Z,99846.02
2019-04-29T17:07:57.013Z,99852.44
2019-04-29T17:10:00.099Z,99853.19
2019-04-29T17:12:03.214Z,99852.02
2019-04-29T17:14:10.110Z,99855.73
2019-04-29T17:16:10.902Z,99857.82
2019-04-29T17:19:43.204Z,99853.80
2019-04-29T17:21:46.269Z,99851.19
2019-04-29T17:23:49.475Z,99855.87
2019-04-29T17:25:52.674Z,99857.23
2019-04-29T17:27:55.777Z,99853.19
2019-04-29T17:30:03.928Z,99851.09
2019-04-29T17:32:04.120Z,99851.41
2019-04-29T17:34:08.397Z,99852.06
2019-04-29T17:36:11.915Z,99848.33
2019-04-29T17:38:15.179Z,99851.34
2019-04-29T17:40:19.477Z,99845.95
2019-04-29T17:42:22.907Z,99858.77
2019-04-29T17:44:26.275Z,99857.73
2019-04-29T17:46:29.494Z,99852.95
2019-04-29T17:48:33.225Z,99851.92
2019-04-29T17:50:39.251Z,99854.45
2019-04-29T17:52:41.094Z,99854.94
2019-04-29T17:54:44.996Z,99857.47
2019-04-29T17:56:48.162Z,99853.42
2019-04-29T17:58:53.866Z,99856.22
2019-04-29T18:00:59.388Z,99855.70
2019-04-29T18:03:00.931Z,99856.02
2019-04-29T18:05:05.622Z,99847.22
2019-04-29T18:07:12.172Z,99850.55
2019-04-29T18:09:15.741Z,99856.45
2019-04-29T18:11:18.741Z,99862.69
2019-04-29T18:13:24.623Z,99862.16
2019-04-29T18:15:26.061Z,99865.71
2019-04-29T18:17:31.150Z,99871.53
2019-04-29T18:19:34.809Z,99871.97
2019-04-29T18:21:43.490Z,99871.97
2019-04-29T18:23:42.746Z,99870.94
2019-04-29T18:25:46.118Z,99863.87
2019-04-29T18:27:53.532Z,99862.31
2019-04-29T18:29:55.092Z,99869.05
2019-04-29T18:32:00.522Z,99863.98
2019-04-29T18:34:03.163Z,99868.03
2019-04-29T18:36:07.079Z,99879.14
2019-04-29T18:38:11.931Z,99880.42
2019-04-29T18:40:16.064Z,99889.23
2019-04-29T18:42:19.960Z,99893.27
2019-04-29T18:44:23.048Z,99891.61
2019-04-29T18:46:26.177Z,99900.02
2019-04-29T18:48:29.289Z,99898.67
2019-04-29T18:50:34.212Z,99892.95
2019-04-29T18:52:36.826Z,99892.42
2019-04-29T18:54:40.131Z,99888.20
2019-04-29T18:56:43.238Z,99893.77
2019-04-29T18:58:50.379Z,99895.86
2019-04-29T19:00:53.917Z,99889.61
2019-04-29T19:02:58.403Z,99884.11
2019-04-29T19:05:00.741Z,99882.50
2019-04-29T19:07:05.410Z,99882.50
2019-04-29T19:09:17.798Z,99891.88
2019-04-29T19:11:15.172Z,99892.70
2019-04-29T19:13:18.268Z,99896.95
2019-04-29T19:15:21.632Z,99894.26
2019-04-29T19:17:25.792Z,99895.61
2019-04-29T19:19:30.880Z,99898.62
2019-04-29T19:21:33.244Z,99894.19
2019-04-29T19:23:36.327Z,99890.64
2019-04-29T19:25:41.587Z,99895.02
2019-04-29T19:27:45.895Z,99891.39
2019-04-29T19:29:48.992Z,99893.59
2019-04-29T19:31:52.160Z,99895.27
2019-04-29T19:33:57.348Z,99898.57
2019-04-29T19:36:00.231Z,99897.54
2019-04-29T19:38:05.138Z,99903.26
2019-04-29T19:40:08.379Z,99904.92
2019-04-29T19:42:11.894Z,99904.22
2019-04-29T19:44:15.531Z,99912.64
2019-04-29T19:46:24.108Z,99912.75
2019-04-29T19:48:26.974Z,99912.53
2019-04-29T19:50:28.006Z,99918.14
2019-04-29T19:52:31.901Z,99913.06
2019-04-29T19:54:35.777Z,99908.16
2019-04-29T19:56:39.637Z,99915.77
2019-04-29T19:58:43.060Z,99904.65
2019-04-29T20:00:47.534Z,99903.62
2019-04-29T20:02:51.629Z,99904.44
2019-04-29T20:04:58.992Z,99906.81
2019-04-29T20:07:05.828Z,99897.91
2019-04-29T20:09:15.999Z,99902.27
2019-04-29T20:11:14.714Z,99912.75
2019-04-29T20:13:13.230Z,99909.52
2019-04-29T20:15:17.105Z,99915.44
2019-04-29T20:17:20.958Z,99911.08
2019-04-29T20:19:27.151Z,99909.73
2019-04-29T20:21:30.836Z,99910.86
2019-04-29T20:25:21.935Z,99913.06
2019-04-29T20:25:39.053Z,99914.91
2019-04-29T20:27:43.443Z,99910.05
2019-04-29T20:29:46.892Z,99910.05
2019-04-29T20:31:53.255Z,99910.26
2019-04-29T20:33:57.964Z,99908.91
2019-04-29T20:36:02.184Z,99904.53
2019-04-29T20:38:05.376Z,99907.63
2019-04-29T20:40:08.066Z,99907.63
2019-04-29T20:42:11.733Z,99910.97
2019-04-29T20:44:16.236Z,99910.44
2019-04-29T20:46:19.855Z,99907.73
2019-04-29T20:48:23.123Z,99905.03
2019-04-29T20:50:26.468Z,99913.13
2019-04-29T20:52:31.069Z,99902.87
2019-04-29T20:54:35.451Z,99900.67
2019-04-29T20:56:38.889Z,99907.95
2019-04-29T20:58:44.340Z,99908.77
2019-04-29T21:00:47.143Z,99909.30
2019-04-29T21:02:50.430Z,99908.77
2019-04-29T21:04:57.780Z,99903.90
2019-04-29T21:07:01.981Z,99899.84
2019-04-29T21:09:03.334Z,99905.25
2019-04-29T21:11:06.889Z,99904.92
2019-04-29T21:13:16.362Z,99900.56
2019-04-29T21:15:16.295Z,99900.77
2019-04-29T21:17:28.511Z,99903.47
2019-04-29T21:19:23.277Z,99901.69
2019-04-29T21:21:26.389Z,99903.03
2019-04-29T21:23:35.401Z,99900.73
2019-04-29T21:25:37.155Z,99899.06
2019-04-29T21:27:40.277Z,99898.23
2019-04-29T21:29:43.538Z,99902.99
2019-04-29T21:34:02.874Z,99904.02
2019-04-29T21:36:06.095Z,99912.18
2019-04-29T21:38:09.168Z,99915.09
2019-04-29T21:40:16.834Z,99907.20
2019-04-29T21:42:16.992Z,99911.11
2019-04-29T21:44:23.696Z,99906.24
2019-04-29T21:46:29.115Z,99910.81
2019-04-29T21:48:33.617Z,99912.88
2019-04-29T21:50:37.902Z,99915.25
2019-04-29T21:52:38.445Z,99919.50
2019-04-29T21:54:44.516Z,99913.47
2019-04-29T21:56:47.813Z,99917.69
2019-04-29T21:58:50.186Z,99929.83
2019-04-29T22:00:55.917Z,99921.45
2019-04-29T22:02:59.015Z,99917.78
2019-04-29T22:05:02.132Z,99914.73
2019-04-29T22:07:07.961Z,99914.41
2019-04-29T22:09:09.444Z,99917.63
2019-04-29T22:11:12.542Z,99921.36
2019-04-29T22:13:15.623Z,99923.41
2019-04-29T22:15:29.760Z,99929.02
2019-04-29T22:17:26.327Z,99931.39
2019-04-29T22:19:28.158Z,99935.61
2019-04-29T22:21:31.331Z,99932.09
2019-04-29T22:23:35.288Z,99937.16
2019-04-29T22:25:41.130Z,99930.95
2019-04-29T22:27:42.682Z,99934.67
2019-04-29T22:29:47.527Z,99932.47
2019-04-29T22:31:50.024Z,99938.72
2019-04-29T22:33:53.093Z,99936.72
2019-04-29T22:35:56.185Z,99940.45
2019-04-29T22:37:59.301Z,99938.78
2019-04-29T22:40:03.092Z,99935.58
2019-04-29T22:42:06.612Z,99937.63
2019-04-29T22:44:09.928Z,99934.61
2019-04-29T22:46:13.028Z,99938.66
2019-04-29T22:48:19.557Z,99936.98
2019-04-29T22:50:20.438Z,99945.58
2019-04-29T22:52:25.578Z,99939.89
2019-04-29T22:54:27.856Z,99940.92
2019-04-29T22:56:31.098Z,99950.03
2019-04-29T22:58:35.086Z,99943.29
2019-04-29T23:00:38.337Z,99945.34
2019-04-29T23:02:41.926Z,99950.73
2019-04-29T23:04:49.065Z,99949.59
2019-04-29T23:06:49.344Z,99946.89
2019-04-29T23:08:52.436Z,99946.57
2019-04-29T23:10:59.747Z,99945.39
2019-04-29T23:13:00.107Z,99941.35
2019-04-29T23:15:03.175Z,99941.35
2019-04-29T23:17:12.045Z,99942.58
2019-04-29T23:19:14.048Z,99937.89
2019-04-29T23:21:16.515Z,99943.11
2019-04-29T23:23:19.679Z,99937.59
2019-04-29T23:25:26.666Z,99937.28
2019-04-29T23:27:27.010Z,99934.26
2019-04-29T23:29:30.100Z,99933.08
2019-04-29T23:31:33.193Z,99925.52
2019-04-29T23:33:36.294Z,99926.55
2019-04-29T23:35:39.997Z,99918.99
2019-04-29T23:37:45.808Z,99923.53
2019-04-29T23:39:48.413Z,99918.34
2019-04-29T23:41:51.504Z,99920.19
2019-04-29T23:43:55.581Z,99910.43
2019-04-29T23:46:00.581Z,99914.19
2019-04-29T23:48:05.512Z,99918.52
2019-04-29T23:50:08.367Z,99920.07
2019-04-29T23:52:13.328Z,99911.66
2019-04-29T23:54:15.665Z,99916.23
2019-04-29T23:56:18.802Z,99914.03
2019-04-29T23:58:21.892Z,99906.80
